createdAt,value
2018-03-14T00:01:51.882Z,5.30
2018-03-14T00:05:54.462Z,5.30
2018-03-14T00:09:57.863Z,5.30
2018-03-14T00:14:00.560Z,5.20
2018-03-14T00:18:08.062Z,5.40
2018-03-14T00:22:10.704Z,5.30
2018-03-14T00:26:14.030Z,5.30
2018-03-14T00:30:16.600Z,5.30
2018-03-14T00:34:19.141Z,5.40
2018-03-14T00:38:21.718Z,5.30
2018-03-14T00:42:24.320Z,5.40
2018-03-14T00:46:26.899Z,5.40
2018-03-14T00:50:30.361Z,5.50
2018-03-14T00:54:33.021Z,5.40
2018-03-14T00:58:35.581Z,5.50
2018-03-14T01:02:38.148Z,5.50
2018-03-14T01:06:40.690Z,5.50
2018-03-14T01:10:43.264Z,5.40
2018-03-14T01:14:45.803Z,5.40
2018-03-14T01:18:48.485Z,5.40
2018-03-14T01:22:51.034Z,5.50
2018-03-14T01:26:53.603Z,5.60
2018-03-14T01:30:56.157Z,5.50
2018-03-14T01:34:59.583Z,5.40
2018-03-14T01:39:08.539Z,5.40
2018-03-14T01:43:11.233Z,5.40
2018-03-14T01:47:13.773Z,5.30
2018-03-14T01:51:16.338Z,5.40
2018-03-14T01:55:18.868Z,5.40
2018-03-14T01:59:22.203Z,5.50
2018-03-14T02:03:24.763Z,5.40
2018-03-14T02:07:27.314Z,5.50
2018-03-14T02:11:29.916Z,5.40
2018-03-14T02:15:32.472Z,5.40
2018-03-14T02:19:35.002Z,5.40
2018-03-14T02:23:37.582Z,5.40
2018-03-14T02:27:40.122Z,5.30
2018-03-14T02:31:42.711Z,5.20
2018-03-14T02:35:45.275Z,5.10
2018-03-14T02:39:48.284Z,5.10
2018-03-14T02:43:50.844Z,5.00
2018-03-14T02:47:53.505Z,5.00
2018-03-14T02:51:56.798Z,5.20
2018-03-14T02:55:59.336Z,5.20
2018-03-14T03:00:02.623Z,5.50
2018-03-14T03:04:05.205Z,5.40
2018-03-14T03:08:07.731Z,5.30
2018-03-14T03:12:10.771Z,5.30
2018-03-14T03:16:14.069Z,5.20
2018-03-14T03:20:16.918Z,5.20
2018-03-14T03:24:20.221Z,5.10
2018-03-14T03:28:22.835Z,5.10
2018-03-14T03:32:26.134Z,5.30
2018-03-14T03:36:28.680Z,5.30
2018-03-14T03:40:31.969Z,5.10
2018-03-14T03:44:34.521Z,5.10
2018-03-14T03:48:40.170Z,5.10
2018-03-14T03:52:42.741Z,5.10
2018-03-14T03:56:45.252Z,5.10
2018-03-14T04:00:47.800Z,5.10
2018-03-14T04:04:51.095Z,5.00
2018-03-14T04:08:53.691Z,5.00
2018-03-14T04:12:56.230Z,5.10
2018-03-14T04:16:59.636Z,5.10
2018-03-14T04:21:02.152Z,5.00
2018-03-14T04:25:04.721Z,5.10
2018-03-14T04:29:07.246Z,5.20
2018-03-14T04:33:09.968Z,5.20
2018-03-14T04:37:13.262Z,5.30
2018-03-14T04:41:16.217Z,5.30
2018-03-14T04:45:19.590Z,5.30
2018-03-14T04:49:22.166Z,5.20
2018-03-14T04:53:24.704Z,5.20
2018-03-14T04:57:27.279Z,5.40
2018-03-14T05:01:29.791Z,5.30
2018-03-14T05:05:33.408Z,5.40
2018-03-14T05:09:35.963Z,5.30
2018-03-14T05:13:38.517Z,5.30
2018-03-14T05:17:41.047Z,5.30
2018-03-14T05:21:43.878Z,5.40
2018-03-14T05:25:46.412Z,5.30
2018-03-14T05:29:48.986Z,5.10
2018-03-14T05:33:51.518Z,5.00
2018-03-14T05:37:54.098Z,5.00
2018-03-14T05:41:56.669Z,4.80
2018-03-14T05:45:59.329Z,4.70
2018-03-14T05:50:03.866Z,4.60
2018-03-14T05:54:06.434Z,4.50
2018-03-14T05:58:08.964Z,4.40
2018-03-14T06:02:11.578Z,4.40
2018-03-14T06:06:14.808Z,4.50
2018-03-14T06:10:17.387Z,4.50
2018-03-14T06:14:24.515Z,4.60
2018-03-14T06:18:27.067Z,4.80
2018-03-14T06:22:29.610Z,5.10
2018-03-14T06:26:32.156Z,5.10
2018-03-14T06:30:34.681Z,5.20
2018-03-14T06:34:37.534Z,5.20
2018-03-14T06:38:40.071Z,5.10
2018-03-14T06:42:42.632Z,5.10
2018-03-14T06:46:45.164Z,5.20
2018-03-14T06:50:47.796Z,5.40
2018-03-14T06:54:56.436Z,5.40
2018-03-14T06:59:10.804Z,5.40
2018-03-14T07:03:25.480Z,5.40
2018-03-14T07:07:28.161Z,5.40
2018-03-14T07:11:30.687Z,5.50
2018-03-14T07:15:33.236Z,5.50
2018-03-14T07:19:35.772Z,5.70
2018-03-14T07:23:39.322Z,5.70
2018-03-14T07:27:41.867Z,5.70
2018-03-14T07:31:44.451Z,5.70
2018-03-14T07:35:47.022Z,5.80
2018-03-14T07:39:50.353Z,5.90
2018-03-14T07:43:54.590Z,6.00
2018-03-14T07:47:57.911Z,6.20
2018-03-14T07:52:00.442Z,6.10
2018-03-14T07:56:03.014Z,6.30
2018-03-14T08:00:06.355Z,6.70
2018-03-14T08:04:09.669Z,6.80
2018-03-14T08:08:12.208Z,6.70
2018-03-14T08:12:14.763Z,6.70
2018-03-14T08:16:17.280Z,6.80
2018-03-14T08:20:19.885Z,7.00
2018-03-14T08:24:22.373Z,6.90
2018-03-14T08:28:24.958Z,6.90
2018-03-14T08:32:30.951Z,7.00
2018-03-14T08:36:35.557Z,7.10
2018-03-14T08:40:38.853Z,7.40
2018-03-14T08:44:46.942Z,7.30
2018-03-14T08:48:49.543Z,7.80
2018-03-14T08:52:52.119Z,8.20
2018-03-14T08:56:54.660Z,8.00
2018-03-14T09:00:57.212Z,8.20
2018-03-14T09:04:59.750Z,8.20
2018-03-14T09:09:04.091Z,9.30
2018-03-14T09:13:07.386Z,12.70
2018-03-14T09:17:09.994Z,12.60
2018-03-14T09:21:12.543Z,15.10
2018-03-14T09:25:15.107Z,16.40
2018-03-14T09:29:17.623Z,17.10
2018-03-14T09:33:20.230Z,18.20
2018-03-14T09:37:22.755Z,18.80
2018-03-14T09:41:26.081Z,17.50
2018-03-14T09:45:29.377Z,17.30
2018-03-14T09:49:43.699Z,17.20
2018-03-14T09:53:46.300Z,17.50
2018-03-14T09:57:50.836Z,18.20
2018-03-14T10:01:54.129Z,20.00
2018-03-14T10:05:57.657Z,20.00
2018-03-14T10:10:00.195Z,18.90
2018-03-14T10:14:03.843Z,19.90
2018-03-14T10:18:08.374Z,19.80
2018-03-14T10:22:10.945Z,20.70
2018-03-14T10:26:13.485Z,20.80
2018-03-14T10:30:16.415Z,19.40
2018-03-14T10:34:18.978Z,17.70
2018-03-14T10:38:21.523Z,17.10
2018-03-14T10:42:24.800Z,17.30
2018-03-14T10:46:27.366Z,17.20
2018-03-14T10:50:30.196Z,18.20
2018-03-14T10:54:33.602Z,17.90
2018-03-14T10:58:36.177Z,17.80
2018-03-14T11:02:44.276Z,17.20
2018-03-14T11:06:46.793Z,17.70
2018-03-14T11:10:49.438Z,17.40
2018-03-14T11:14:51.983Z,18.20
2018-03-14T11:18:54.547Z,16.90
2018-03-14T11:22:57.842Z,17.40
2018-03-14T11:27:00.490Z,17.30
2018-03-14T11:31:03.012Z,17.50
2018-03-14T11:35:05.584Z,16.90
2018-03-14T11:39:08.878Z,16.00
2018-03-14T11:43:11.520Z,15.90
2018-03-14T11:47:14.823Z,16.10
2018-03-14T11:51:17.385Z,16.00
2018-03-14T11:55:19.926Z,15.10
2018-03-14T11:59:22.531Z,14.60
2018-03-14T12:03:25.057Z,14.70
2018-03-14T12:07:39.693Z,14.90
2018-03-14T12:11:42.269Z,15.20
2018-03-14T12:15:45.583Z,14.70
2018-03-14T12:19:48.881Z,14.70
2018-03-14T12:23:51.833Z,14.60
2018-03-14T12:27:58.275Z,15.30
2018-03-14T12:32:00.812Z,15.20
2018-03-14T12:36:03.333Z,15.50
2018-03-14T12:40:06.680Z,14.80
2018-03-14T12:44:09.212Z,14.70
2018-03-14T12:48:11.786Z,14.70
2018-03-14T12:52:15.082Z,14.30
2018-03-14T12:56:18.415Z,14.60
2018-03-14T13:00:21.719Z,14.80
2018-03-14T13:04:24.357Z,14.70
2018-03-14T13:08:26.889Z,14.40
2018-03-14T13:12:29.443Z,14.10
2018-03-14T13:16:31.983Z,13.50
2018-03-14T13:20:34.552Z,13.40
2018-03-14T13:24:40.212Z,13.40
2018-03-14T13:28:42.996Z,13.20
2018-03-14T13:32:45.542Z,13.00
2018-03-14T13:36:48.163Z,12.60
2018-03-14T13:40:50.725Z,12.00
2018-03-14T13:44:53.306Z,11.80
2018-03-14T13:48:56.185Z,12.10
2018-03-14T13:52:59.693Z,12.30
2018-03-14T13:57:03.212Z,12.20
2018-03-14T14:01:05.885Z,12.30
2018-03-14T14:05:08.427Z,12.30
2018-03-14T14:09:11.048Z,12.30
2018-03-14T14:13:13.603Z,12.50
2018-03-14T14:17:19.964Z,12.60
2018-03-14T14:21:23.472Z,12.60
2018-03-14T14:25:26.065Z,12.50
2018-03-14T14:29:28.599Z,12.60
2018-03-14T14:33:31.156Z,12.60
2018-03-14T14:37:34.615Z,12.40
2018-03-14T14:41:37.248Z,11.90
2018-03-14T14:45:39.735Z,11.90
2018-03-14T14:49:43.561Z,11.60
2018-03-14T14:53:46.062Z,11.10
2018-03-14T14:57:52.826Z,10.90
2018-03-14T15:01:55.365Z,10.80
2018-03-14T15:05:58.362Z,10.70
2018-03-14T15:10:00.874Z,10.70
2018-03-14T15:14:03.422Z,10.60
2018-03-14T15:18:05.934Z,10.40
2018-03-14T15:22:10.239Z,10.40
2018-03-14T15:26:12.764Z,10.40
2018-03-14T15:30:15.551Z,10.40
2018-03-14T15:34:18.060Z,10.40
2018-03-14T15:38:20.894Z,10.40
2018-03-14T15:42:23.404Z,10.50
2018-03-14T15:46:26.053Z,10.50
2018-03-14T15:50:28.582Z,10.50
2018-03-14T15:54:31.190Z,10.50
2018-03-14T15:58:33.726Z,10.50
2018-03-14T16:02:39.796Z,10.50
2018-03-14T16:06:42.337Z,10.60
2018-03-14T16:10:46.897Z,10.60
2018-03-14T16:14:50.193Z,10.50
2018-03-14T16:18:52.872Z,10.40
2018-03-14T16:22:55.393Z,10.50
2018-03-14T16:26:58.063Z,10.40
2018-03-14T16:31:00.615Z,10.40
2018-03-14T16:35:03.570Z,10.30
2018-03-14T16:39:06.870Z,10.20
2018-03-14T16:43:09.459Z,10.10
2018-03-14T16:47:11.990Z,10.10
2018-03-14T16:51:15.421Z,10.10
2018-03-14T16:55:25.338Z,10.00
2018-03-14T16:59:27.911Z,9.80
2018-03-14T17:03:30.454Z,9.90
2018-03-14T17:07:33.058Z,9.90
2018-03-14T17:11:35.666Z,9.80
2018-03-14T17:15:38.241Z,9.70
2018-03-14T17:19:42.516Z,9.70
2018-03-14T17:23:45.056Z,9.60
2018-03-14T17:27:47.562Z,9.70
2018-03-14T17:31:50.220Z,9.70
2018-03-14T17:35:53.676Z,9.70
2018-03-14T17:39:56.239Z,9.70
2018-03-14T17:43:59.518Z,9.80
2018-03-14T17:48:02.082Z,9.70
2018-03-14T17:52:04.617Z,9.80
2018-03-14T17:56:08.456Z,9.70
2018-03-14T18:00:12.922Z,9.70
2018-03-14T18:04:15.491Z,9.70
2018-03-14T18:08:18.069Z,9.70
2018-03-14T18:12:24.367Z,9.30
2018-03-14T18:16:27.685Z,9.30
2018-03-14T18:20:31.094Z,9.10
2018-03-14T18:24:33.630Z,9.00
2018-03-14T18:28:36.198Z,9.10
2018-03-14T18:32:39.663Z,9.10
2018-03-14T18:36:42.350Z,9.20
2018-03-14T18:40:45.633Z,9.10
2018-03-14T18:44:49.186Z,9.00
2018-03-14T18:48:51.741Z,9.00
2018-03-14T18:52:54.474Z,8.80
2018-03-14T18:56:57.031Z,8.80
2018-03-14T19:01:01.383Z,8.60
2018-03-14T19:05:04.693Z,8.50
2018-03-14T19:09:08.092Z,8.40
2018-03-14T19:13:10.655Z,8.30
2018-03-14T19:17:14.566Z,8.30
2018-03-14T19:21:17.871Z,8.00
2018-03-14T19:25:21.517Z,7.90
2018-03-14T19:29:25.514Z,7.80
2018-03-14T19:33:28.160Z,7.60
2018-03-14T19:37:33.407Z,7.50
2018-03-14T19:41:36.479Z,7.40
2018-03-14T19:45:39.990Z,7.40
2018-03-14T19:49:42.581Z,7.20
2018-03-14T19:53:45.128Z,7.10
2018-03-14T19:57:47.933Z,7.00
2018-03-14T20:01:50.498Z,7.00
2018-03-14T20:05:53.037Z,7.00
2018-03-14T20:09:56.509Z,6.90
2018-03-14T20:14:01.432Z,6.80
2018-03-14T20:18:05.952Z,6.70
2018-03-14T20:22:10.537Z,6.60
2018-03-14T20:26:13.187Z,6.50
2018-03-14T20:30:15.756Z,6.60
2018-03-14T20:34:21.688Z,6.50
2018-03-14T20:38:24.259Z,6.40
2018-03-14T20:42:30.498Z,6.30
2018-03-14T20:46:33.939Z,6.10
2018-03-14T20:50:37.572Z,6.00
2018-03-14T20:54:40.888Z,5.90
2018-03-14T20:58:44.295Z,5.90
2018-03-14T21:02:47.537Z,5.80
2018-03-14T21:06:50.840Z,5.80
2018-03-14T21:10:54.386Z,5.70
2018-03-14T21:14:56.961Z,5.70
2018-03-14T21:18:59.513Z,5.60
2018-03-14T21:23:02.046Z,5.60
2018-03-14T21:27:04.643Z,5.60
2018-03-14T21:31:07.222Z,5.80
2018-03-14T21:35:09.799Z,5.90
2018-03-14T21:39:12.338Z,5.90
2018-03-14T21:43:23.735Z,5.90
2018-03-14T21:47:26.271Z,5.80
2018-03-14T21:51:28.858Z,5.80
2018-03-14T21:55:39.010Z,5.70
2018-03-14T21:59:42.537Z,5.70
2018-03-14T22:03:45.046Z,5.70
2018-03-14T22:07:47.606Z,5.80
2018-03-14T22:11:50.123Z,5.70
2018-03-14T22:15:54.721Z,5.40
2018-03-14T22:19:57.256Z,5.20
2018-03-14T22:24:00.568Z,5.30
2018-03-14T22:28:03.092Z,5.20
2018-03-14T22:32:11.507Z,5.20
2018-03-14T22:36:14.050Z,5.30
2018-03-14T22:40:16.762Z,5.50
2018-03-14T22:44:19.279Z,5.30
2018-03-14T22:48:21.866Z,5.20
2018-03-14T22:52:24.401Z,5.30
2018-03-14T22:56:27.050Z,5.20
2018-03-14T23:00:29.630Z,5.10
2018-03-14T23:04:32.184Z,5.20
2018-03-14T23:08:34.700Z,5.20
2018-03-14T23:12:37.274Z,5.20
2018-03-14T23:16:40.561Z,5.20
2018-03-14T23:20:43.102Z,5.10
2018-03-14T23:24:45.666Z,5.10
2018-03-14T23:28:48.212Z,5.10
2018-03-14T23:32:50.737Z,5.10
2018-03-14T23:36:54.371Z,5.10
2018-03-14T23:40:57.671Z,5.10
2018-03-14T23:45:00.237Z,5.00
2018-03-14T23:49:02.789Z,5.00
2018-03-14T23:53:08.066Z,4.80
2018-03-14T23:57:10.584Z,4.80
